sensor_id;sensor_type;location;lat;lon;timestamp;P1;durP1;ratioP1;P2;durP2;ratioP2
37885;SDS011;23726;52.520;13.434;2022-08-23T00:01:21;6.80;;;4.30;;
37885;SDS011;23726;52.520;13.434;2022-08-23T00:03:51;6.47;;;4.30;;
37885;SDS011;23726;52.520;13.434;2022-08-23T00:06:17;6.93;;;4.40;;
37885;SDS011;23726;52.520;13.434;2022-08-23T00:08:46;5.82;;;4.32;;
37885;SDS011;23726;52.520;13.434;2022-08-23T00:13:57;4.95;;;4.38;;
37885;SDS011;23726;52.520;13.434;2022-08-23T00:16:23;6.43;;;4.85;;
37885;SDS011;23726;52.520;13.434;2022-08-23T00:18:49;6.32;;;4.45;;
37885;SDS011;23726;52.520;13.434;2022-08-23T00:21:15;6.38;;;4.38;;
37885;SDS011;23726;52.520;13.434;2022-08-23T00:23:40;6.78;;;4.78;;
37885;SDS011;23726;52.520;13.434;2022-08-23T00:26:06;6.85;;;4.50;;
37885;SDS011;23726;52.520;13.434;2022-08-23T00:28:32;5.35;;;4.30;;
37885;SDS011;23726;52.520;13.434;2022-08-23T00:30:58;5.43;;;4.43;;
37885;SDS011;23726;52.520;13.434;2022-08-23T00:33:24;5.30;;;4.60;;
37885;SDS011;23726;52.520;13.434;2022-08-23T00:35:50;6.78;;;4.90;;
37885;SDS011;23726;52.520;13.434;2022-08-23T00:38:16;6.07;;;4.57;;
37885;SDS011;23726;52.520;13.434;2022-08-23T00:40:43;5.05;;;4.47;;
37885;SDS011;23726;52.520;13.434;2022-08-23T00:43:11;7.60;;;4.43;;
37885;SDS011;23726;52.520;13.434;2022-08-23T00:49:03;6.88;;;4.78;;
37885;SDS011;23726;52.520;13.434;2022-08-23T00:51:44;5.07;;;4.50;;
37885;SDS011;23726;52.520;13.434;2022-08-23T00:54:16;5.30;;;4.70;;
37885;SDS011;23726;52.520;13.434;2022-08-23T00:56:43;5.00;;;4.50;;
37885;SDS011;23726;52.520;13.434;2022-08-23T00:59:10;4.78;;;4.28;;
37885;SDS011;23726;52.520;13.434;2022-08-23T01:01:36;4.85;;;4.45;;
37885;SDS011;23726;52.520;13.434;2022-08-23T01:04:02;6.15;;;4.45;;
37885;SDS011;23726;52.520;13.434;2022-08-23T01:06:31;5.43;;;4.90;;
37885;SDS011;23726;52.520;13.434;2022-08-23T01:09:13;8.27;;;4.63;;
37885;SDS011;23726;52.520;13.434;2022-08-23T01:11:46;6.15;;;4.38;;
37885;SDS011;23726;52.520;13.434;2022-08-23T01:14:24;4.90;;;4.40;;
37885;SDS011;23726;52.520;13.434;2022-08-23T01:22:03;5.47;;;4.60;;
37885;SDS011;23726;52.520;13.434;2022-08-23T01:24:50;5.18;;;4.20;;
37885;SDS011;23726;52.520;13.434;2022-08-23T01:27:16;6.05;;;4.97;;
37885;SDS011;23726;52.520;13.434;2022-08-23T01:29:41;5.18;;;4.72;;
37885;SDS011;23726;52.520;13.434;2022-08-23T01:32:07;4.82;;;4.32;;
37885;SDS011;23726;52.520;13.434;2022-08-23T01:34:33;4.63;;;4.15;;
37885;SDS011;23726;52.520;13.434;2022-08-23T01:37:02;5.18;;;4.53;;
37885;SDS011;23726;52.520;13.434;2022-08-23T01:39:30;5.45;;;4.93;;
37885;SDS011;23726;52.520;13.434;2022-08-23T01:41:56;5.40;;;4.55;;
37885;SDS011;23726;52.520;13.434;2022-08-23T01:44:21;5.35;;;4.57;;
37885;SDS011;23726;52.520;13.434;2022-08-23T01:46:47;5.13;;;4.45;;
37885;SDS011;23726;52.520;13.434;2022-08-23T01:49:13;5.00;;;4.35;;
37885;SDS011;23726;52.520;13.434;2022-08-23T01:51:39;5.88;;;4.80;;
37885;SDS011;23726;52.520;13.434;2022-08-23T01:54:04;4.93;;;4.50;;
37885;SDS011;23726;52.520;13.434;2022-08-23T01:56:30;5.00;;;4.25;;
37885;SDS011;23726;52.520;13.434;2022-08-23T01:58:58;5.35;;;4.82;;
37885;SDS011;23726;52.520;13.434;2022-08-23T02:01:24;5.15;;;4.45;;
37885;SDS011;23726;52.520;13.434;2022-08-23T02:03:50;6.57;;;5.40;;
37885;SDS011;23726;52.520;13.434;2022-08-23T02:06:16;6.50;;;4.65;;
37885;SDS011;23726;52.520;13.434;2022-08-23T02:08:43;5.65;;;4.32;;
37885;SDS011;23726;52.520;13.434;2022-08-23T02:11:32;5.97;;;4.43;;
37885;SDS011;23726;52.520;13.434;2022-08-23T02:14:01;5.53;;;4.43;;
37885;SDS011;23726;52.520;13.434;2022-08-23T02:16:34;6.80;;;4.40;;
37885;SDS011;23726;52.520;13.434;2022-08-23T02:19:03;5.57;;;4.38;;
37885;SDS011;23726;52.520;13.434;2022-08-23T02:21:32;5.07;;;4.57;;
37885;SDS011;23726;52.520;13.434;2022-08-23T02:24:03;5.80;;;4.90;;
37885;SDS011;23726;52.520;13.434;2022-08-23T02:26:36;6.05;;;4.93;;
37885;SDS011;23726;52.520;13.434;2022-08-23T02:29:04;8.02;;;5.10;;
37885;SDS011;23726;52.520;13.434;2022-08-23T02:31:30;7.05;;;4.85;;
37885;SDS011;23726;52.520;13.434;2022-08-23T02:33:55;5.80;;;4.70;;
37885;SDS011;23726;52.520;13.434;2022-08-23T02:36:21;6.40;;;4.50;;
37885;SDS011;23726;52.520;13.434;2022-08-23T02:38:47;5.25;;;4.75;;
37885;SDS011;23726;52.520;13.434;2022-08-23T02:41:12;5.03;;;4.53;;
37885;SDS011;23726;52.520;13.434;2022-08-23T02:43:38;5.20;;;4.70;;
37885;SDS011;23726;52.520;13.434;2022-08-23T02:46:04;5.35;;;4.85;;
37885;SDS011;23726;52.520;13.434;2022-08-23T02:48:30;4.82;;;4.43;;
37885;SDS011;23726;52.520;13.434;2022-08-23T02:51:00;5.80;;;4.57;;
37885;SDS011;23726;52.520;13.434;2022-08-23T02:53:28;5.35;;;4.85;;
37885;SDS011;23726;52.520;13.434;2022-08-23T02:55:55;4.90;;;4.40;;
37885;SDS011;23726;52.520;13.434;2022-08-23T02:58:21;6.13;;;4.20;;
37885;SDS011;23726;52.520;13.434;2022-08-23T03:00:48;5.47;;;4.00;;
37885;SDS011;23726;52.520;13.434;2022-08-23T03:03:14;5.30;;;3.80;;
37885;SDS011;23726;52.520;13.434;2022-08-23T03:05:41;5.03;;;4.07;;
37885;SDS011;23726;52.520;13.434;2022-08-23T03:08:07;7.00;;;4.55;;
37885;SDS011;23726;52.520;13.434;2022-08-23T03:10:33;7.47;;;4.40;;
37885;SDS011;23726;52.520;13.434;2022-08-23T03:12:58;4.80;;;4.30;;
37885;SDS011;23726;52.520;13.434;2022-08-23T03:15:25;4.60;;;4.20;;
37885;SDS011;23726;52.520;13.434;2022-08-23T03:17:50;5.28;;;4.70;;
37885;SDS011;23726;52.520;13.434;2022-08-23T03:20:16;6.15;;;4.70;;
37885;SDS011;23726;52.520;13.434;2022-08-23T03:22:41;5.45;;;4.20;;
37885;SDS011;23726;52.520;13.434;2022-08-23T03:25:08;7.03;;;4.22;;
37885;SDS011;23726;52.520;13.434;2022-08-23T03:27:34;5.45;;;4.82;;
37885;SDS011;23726;52.520;13.434;2022-08-23T03:30:00;6.05;;;4.55;;
37885;SDS011;23726;52.520;13.434;2022-08-23T03:32:26;7.20;;;4.63;;
37885;SDS011;23726;52.520;13.434;2022-08-23T03:34:52;5.43;;;4.45;;
37885;SDS011;23726;52.520;13.434;2022-08-23T03:37:18;5.38;;;4.70;;
37885;SDS011;23726;52.520;13.434;2022-08-23T03:39:44;5.00;;;4.43;;
37885;SDS011;23726;52.520;13.434;2022-08-23T03:42:10;5.30;;;4.25;;
37885;SDS011;23726;52.520;13.434;2022-08-23T03:44:37;6.45;;;4.70;;
37885;SDS011;23726;52.520;13.434;2022-08-23T03:47:03;5.03;;;4.13;;
37885;SDS011;23726;52.520;13.434;2022-08-23T03:49:30;5.18;;;4.15;;
37885;SDS011;23726;52.520;13.434;2022-08-23T03:51:55;5.97;;;4.85;;
37885;SDS011;23726;52.520;13.434;2022-08-23T03:54:22;6.55;;;4.75;;
37885;SDS011;23726;52.520;13.434;2022-08-23T03:57:01;4.80;;;4.30;;
37885;SDS011;23726;52.520;13.434;2022-08-23T03:59:29;4.88;;;4.28;;
37885;SDS011;23726;52.520;13.434;2022-08-23T04:01:57;5.80;;;4.80;;
37885;SDS011;23726;52.520;13.434;2022-08-23T04:04:23;4.93;;;4.38;;
37885;SDS011;23726;52.520;13.434;2022-08-23T04:06:49;4.53;;;4.13;;
37885;SDS011;23726;52.520;13.434;2022-08-23T04:09:15;4.90;;;4.50;;
37885;SDS011;23726;52.520;13.434;2022-08-23T04:11:41;6.25;;;4.75;;
37885;SDS011;23726;52.520;13.434;2022-08-23T04:14:08;4.93;;;4.40;;
37885;SDS011;23726;52.520;13.434;2022-08-23T04:16:35;5.15;;;4.63;;
37885;SDS011;23726;52.520;13.434;2022-08-23T04:19:08;5.35;;;4.78;;
37885;SDS011;23726;52.520;13.434;2022-08-23T04:21:37;5.22;;;4.72;;
37885;SDS011;23726;52.520;13.434;2022-08-23T04:24:04;5.25;;;4.70;;
37885;SDS011;23726;52.520;13.434;2022-08-23T04:26:29;5.40;;;4.80;;
37885;SDS011;23726;52.520;13.434;2022-08-23T04:28:55;5.43;;;4.80;;
37885;SDS011;23726;52.520;13.434;2022-08-23T04:31:21;5.32;;;4.82;;
37885;SDS011;23726;52.520;13.434;2022-08-23T04:33:52;7.25;;;5.25;;
37885;SDS011;23726;52.520;13.434;2022-08-23T04:36:18;5.13;;;4.70;;
37885;SDS011;23726;52.520;13.434;2022-08-23T04:38:46;6.28;;;4.72;;
37885;SDS011;23726;52.520;13.434;2022-08-23T04:41:11;6.22;;;5.00;;
37885;SDS011;23726;52.520;13.434;2022-08-23T04:43:55;5.25;;;4.75;;
37885;SDS011;23726;52.520;13.434;2022-08-23T04:46:22;5.03;;;4.55;;
37885;SDS011;23726;52.520;13.434;2022-08-23T04:48:47;6.15;;;4.95;;
37885;SDS011;23726;52.520;13.434;2022-08-23T04:51:13;5.40;;;4.90;;
37885;SDS011;23726;52.520;13.434;2022-08-23T04:53:40;5.72;;;5.10;;
37885;SDS011;23726;52.520;13.434;2022-08-23T04:56:06;5.20;;;4.70;;
37885;SDS011;23726;52.520;13.434;2022-08-23T04:58:33;5.65;;;4.88;;
37885;SDS011;23726;52.520;13.434;2022-08-23T05:01:02;5.00;;;4.55;;
37885;SDS011;23726;52.520;13.434;2022-08-23T05:03:29;6.65;;;5.00;;
37885;SDS011;23726;52.520;13.434;2022-08-23T05:05:56;5.22;;;4.70;;
37885;SDS011;23726;52.520;13.434;2022-08-23T05:08:22;5.32;;;4.82;;
37885;SDS011;23726;52.520;13.434;2022-08-23T05:10:48;6.68;;;5.25;;
37885;SDS011;23726;52.520;13.434;2022-08-23T05:13:14;5.43;;;4.93;;
37885;SDS011;23726;52.520;13.434;2022-08-23T05:15:41;6.07;;;5.47;;
37885;SDS011;23726;52.520;13.434;2022-08-23T05:18:08;5.38;;;4.88;;
37885;SDS011;23726;52.520;13.434;2022-08-23T05:20:34;5.80;;;5.20;;
37885;SDS011;23726;52.520;13.434;2022-08-23T05:23:00;5.82;;;5.20;;
37885;SDS011;23726;52.520;13.434;2022-08-23T05:25:26;5.40;;;4.90;;
37885;SDS011;23726;52.520;13.434;2022-08-23T05:28:12;5.97;;;5.13;;
37885;SDS011;23726;52.520;13.434;2022-08-23T05:30:39;6.65;;;5.32;;
37885;SDS011;23726;52.520;13.434;2022-08-23T05:33:04;7.88;;;5.57;;
37885;SDS011;23726;52.520;13.434;2022-08-23T05:35:30;6.63;;;5.25;;
37885;SDS011;23726;52.520;13.434;2022-08-23T05:37:56;6.90;;;5.53;;
37885;SDS011;23726;52.520;13.434;2022-08-23T05:40:24;5.20;;;4.70;;
37885;SDS011;23726;52.520;13.434;2022-08-23T05:42:50;5.63;;;5.10;;
37885;SDS011;23726;52.520;13.434;2022-08-23T05:45:16;7.40;;;5.53;;
37885;SDS011;23726;52.520;13.434;2022-08-23T05:47:43;6.00;;;5.25;;
37885;SDS011;23726;52.520;13.434;2022-08-23T05:50:10;6.25;;;5.65;;
37885;SDS011;23726;52.520;13.434;2022-08-23T05:52:36;6.22;;;5.63;;
37885;SDS011;23726;52.520;13.434;2022-08-23T05:55:01;6.28;;;5.57;;
37885;SDS011;23726;52.520;13.434;2022-08-23T05:57:27;7.28;;;6.28;;
37885;SDS011;23726;52.520;13.434;2022-08-23T05:59:54;7.35;;;6.30;;
37885;SDS011;23726;52.520;13.434;2022-08-23T06:02:19;7.13;;;5.90;;
37885;SDS011;23726;52.520;13.434;2022-08-23T06:04:45;6.65;;;6.00;;
37885;SDS011;23726;52.520;13.434;2022-08-23T06:07:10;7.47;;;5.80;;
37885;SDS011;23726;52.520;13.434;2022-08-23T06:09:36;6.68;;;5.72;;
37885;SDS011;23726;52.520;13.434;2022-08-23T06:12:02;7.03;;;5.80;;
37885;SDS011;23726;52.520;13.434;2022-08-23T06:14:27;6.53;;;5.93;;
37885;SDS011;23726;52.520;13.434;2022-08-23T06:16:53;8.07;;;5.70;;
37885;SDS011;23726;52.520;13.434;2022-08-23T06:19:19;6.75;;;5.32;;
37885;SDS011;23726;52.520;13.434;2022-08-23T06:21:45;7.65;;;5.90;;
37885;SDS011;23726;52.520;13.434;2022-08-23T06:24:12;7.70;;;5.78;;
37885;SDS011;23726;52.520;13.434;2022-08-23T06:26:39;7.25;;;5.75;;
37885;SDS011;23726;52.520;13.434;2022-08-23T06:29:11;6.25;;;5.65;;
37885;SDS011;23726;52.520;13.434;2022-08-23T06:31:41;6.93;;;6.22;;
37885;SDS011;23726;52.520;13.434;2022-08-23T06:34:11;8.02;;;5.97;;
37885;SDS011;23726;52.520;13.434;2022-08-23T06:36:44;6.40;;;5.72;;
37885;SDS011;23726;52.520;13.434;2022-08-23T06:39:11;6.95;;;5.90;;
37885;SDS011;23726;52.520;13.434;2022-08-23T06:41:38;10.45;;;6.18;;
37885;SDS011;23726;52.520;13.434;2022-08-23T06:44:04;7.47;;;5.95;;
37885;SDS011;23726;52.520;13.434;2022-08-23T06:46:30;6.50;;;5.60;;
37885;SDS011;23726;52.520;13.434;2022-08-23T06:48:56;7.85;;;5.93;;
37885;SDS011;23726;52.520;13.434;2022-08-23T06:51:26;8.45;;;5.60;;
37885;SDS011;23726;52.520;13.434;2022-08-23T06:53:57;6.85;;;5.80;;
37885;SDS011;23726;52.520;13.434;2022-08-23T06:56:24;6.05;;;5.55;;
37885;SDS011;23726;52.520;13.434;2022-08-23T06:58:51;7.93;;;6.05;;
37885;SDS011;23726;52.520;13.434;2022-08-23T07:01:31;7.00;;;5.75;;
37885;SDS011;23726;52.520;13.434;2022-08-23T07:04:03;8.15;;;5.68;;
37885;SDS011;23726;52.520;13.434;2022-08-23T07:06:30;7.85;;;5.60;;
37885;SDS011;23726;52.520;13.434;2022-08-23T07:08:57;7.75;;;5.85;;
37885;SDS011;23726;52.520;13.434;2022-08-23T07:11:25;7.07;;;5.95;;
37885;SDS011;23726;52.520;13.434;2022-08-23T07:13:55;7.75;;;5.50;;
37885;SDS011;23726;52.520;13.434;2022-08-23T07:16:21;7.53;;;5.60;;
37885;SDS011;23726;52.520;13.434;2022-08-23T07:18:47;6.38;;;5.78;;
37885;SDS011;23726;52.520;13.434;2022-08-23T07:21:14;7.05;;;5.72;;
37885;SDS011;23726;52.520;13.434;2022-08-23T07:23:39;8.57;;;6.03;;
37885;SDS011;23726;52.520;13.434;2022-08-23T07:26:08;6.38;;;5.53;;
37885;SDS011;23726;52.520;13.434;2022-08-23T07:28:37;6.65;;;5.57;;
37885;SDS011;23726;52.520;13.434;2022-08-23T07:31:11;6.80;;;5.85;;
37885;SDS011;23726;52.520;13.434;2022-08-23T07:33:38;6.25;;;5.50;;
37885;SDS011;23726;52.520;13.434;2022-08-23T07:36:05;7.82;;;5.47;;
37885;SDS011;23726;52.520;13.434;2022-08-23T07:38:31;6.82;;;5.30;;
37885;SDS011;23726;52.520;13.434;2022-08-23T07:40:57;6.90;;;4.95;;
37885;SDS011;23726;52.520;13.434;2022-08-23T07:43:23;6.10;;;5.22;;
37885;SDS011;23726;52.520;13.434;2022-08-23T07:45:48;6.93;;;5.63;;
37885;SDS011;23726;52.520;13.434;2022-08-23T07:48:14;5.45;;;4.75;;
37885;SDS011;23726;52.520;13.434;2022-08-23T07:50:40;6.03;;;5.43;;
37885;SDS011;23726;52.520;13.434;2022-08-23T07:53:06;6.63;;;5.10;;
37885;SDS011;23726;52.520;13.434;2022-08-23T07:55:32;6.63;;;5.30;;
37885;SDS011;23726;52.520;13.434;2022-08-23T07:57:59;8.88;;;5.35;;
37885;SDS011;23726;52.520;13.434;2022-08-23T08:00:25;6.82;;;4.97;;
37885;SDS011;23726;52.520;13.434;2022-08-23T08:02:51;5.90;;;5.03;;
37885;SDS011;23726;52.520;13.434;2022-08-23T08:05:16;7.13;;;5.10;;
37885;SDS011;23726;52.520;13.434;2022-08-23T08:07:42;6.88;;;5.53;;
37885;SDS011;23726;52.520;13.434;2022-08-23T08:10:08;5.70;;;4.95;;
37885;SDS011;23726;52.520;13.434;2022-08-23T08:12:34;5.32;;;4.82;;
37885;SDS011;23726;52.520;13.434;2022-08-23T08:15:00;5.45;;;4.93;;
37885;SDS011;23726;52.520;13.434;2022-08-23T08:17:26;5.40;;;4.90;;
37885;SDS011;23726;52.520;13.434;2022-08-23T08:19:51;7.05;;;5.35;;
37885;SDS011;23726;52.520;13.434;2022-08-23T08:22:17;6.85;;;5.22;;
37885;SDS011;23726;52.520;13.434;2022-08-23T08:24:43;6.35;;;5.53;;
37885;SDS011;23726;52.520;13.434;2022-08-23T08:27:08;5.97;;;5.30;;
37885;SDS011;23726;52.520;13.434;2022-08-23T08:29:35;6.00;;;5.10;;
37885;SDS011;23726;52.520;13.434;2022-08-23T08:32:00;6.07;;;5.47;;
37885;SDS011;23726;52.520;13.434;2022-08-23T08:34:26;5.68;;;4.75;;
37885;SDS011;23726;52.520;13.434;2022-08-23T08:36:53;6.05;;;5.45;;
37885;SDS011;23726;52.520;13.434;2022-08-23T08:39:30;6.32;;;5.25;;
37885;SDS011;23726;52.520;13.434;2022-08-23T08:44:44;5.75;;;5.18;;
37885;SDS011;23726;52.520;13.434;2022-08-23T08:50:15;5.90;;;5.18;;
37885;SDS011;23726;52.520;13.434;2022-08-23T08:52:50;6.30;;;5.25;;
37885;SDS011;23726;52.520;13.434;2022-08-23T08:55:22;6.45;;;5.43;;
37885;SDS011;23726;52.520;13.434;2022-08-23T08:57:50;8.13;;;6.07;;
37885;SDS011;23726;52.520;13.434;2022-08-23T09:00:23;297.88;;;59.53;;
37885;SDS011;23726;52.520;13.434;2022-08-23T09:02:51;132.90;;;31.30;;
37885;SDS011;23726;52.520;13.434;2022-08-23T09:05:25;123.43;;;29.10;;
37885;SDS011;23726;52.520;13.434;2022-08-23T09:07:58;181.85;;;39.30;;
37885;SDS011;23726;52.520;13.434;2022-08-23T09:13:36;163.98;;;37.00;;
37885;SDS011;23726;52.520;13.434;2022-08-23T09:16:11;329.63;;;67.38;;
37885;SDS011;23726;52.520;13.434;2022-08-23T09:18:46;214.98;;;48.08;;
37885;SDS011;23726;52.520;13.434;2022-08-23T09:21:12;213.82;;;48.25;;
37885;SDS011;23726;52.520;13.434;2022-08-23T09:23:42;194.82;;;45.00;;
37885;SDS011;23726;52.520;13.434;2022-08-23T09:26:30;213.02;;;45.15;;
37885;SDS011;23726;52.520;13.434;2022-08-23T09:28:58;216.13;;;47.33;;
37885;SDS011;23726;52.520;13.434;2022-08-23T09:31:40;233.18;;;49.65;;
37885;SDS011;23726;52.520;13.434;2022-08-23T09:34:08;332.20;;;74.68;;
37885;SDS011;23726;52.520;13.434;2022-08-23T09:36:42;353.95;;;75.95;;
37885;SDS011;23726;52.520;13.434;2022-08-23T09:39:30;323.45;;;71.80;;
37885;SDS011;23726;52.520;13.434;2022-08-23T09:42:01;267.33;;;58.65;;
37885;SDS011;23726;52.520;13.434;2022-08-23T09:44:38;231.38;;;54.08;;
37885;SDS011;23726;52.520;13.434;2022-08-23T09:49:42;193.13;;;50.25;;
37885;SDS011;23726;52.520;13.434;2022-08-23T09:52:24;199.70;;;50.55;;
37885;SDS011;23726;52.520;13.434;2022-08-23T09:55:02;220.68;;;49.35;;
37885;SDS011;23726;52.520;13.434;2022-08-23T09:57:32;198.50;;;49.25;;
37885;SDS011;23726;52.520;13.434;2022-08-23T10:00:02;197.93;;;48.85;;
37885;SDS011;23726;52.520;13.434;2022-08-23T10:02:46;188.10;;;46.90;;
37885;SDS011;23726;52.520;13.434;2022-08-23T10:05:17;180.85;;;45.08;;
37885;SDS011;23726;52.520;13.434;2022-08-23T10:07:53;184.93;;;45.40;;
37885;SDS011;23726;52.520;13.434;2022-08-23T10:10:38;184.82;;;46.58;;
37885;SDS011;23726;52.520;13.434;2022-08-23T10:13:12;172.93;;;43.55;;
37885;SDS011;23726;52.520;13.434;2022-08-23T10:15:52;178.35;;;44.28;;
37885;SDS011;23726;52.520;13.434;2022-08-23T10:21:27;153.73;;;41.35;;
37885;SDS011;23726;52.520;13.434;2022-08-23T10:23:56;159.93;;;39.10;;
37885;SDS011;23726;52.520;13.434;2022-08-23T10:26:57;139.60;;;40.40;;
37885;SDS011;23726;52.520;13.434;2022-08-23T10:30:21;152.60;;;39.67;;
37885;SDS011;23726;52.520;13.434;2022-08-23T10:33:00;155.73;;;40.67;;
37885;SDS011;23726;52.520;13.434;2022-08-23T10:36:26;137.85;;;38.80;;
37885;SDS011;23726;52.520;13.434;2022-08-23T10:38:51;135.10;;;38.75;;
37885;SDS011;23726;52.520;13.434;2022-08-23T10:49:57;122.45;;;35.20;;
37885;SDS011;23726;52.520;13.434;2022-08-23T10:52:30;122.15;;;34.78;;
37885;SDS011;23726;52.520;13.434;2022-08-23T10:55:01;109.13;;;33.38;;
37885;SDS011;23726;52.520;13.434;2022-08-23T10:57:41;110.47;;;32.53;;
37885;SDS011;23726;52.520;13.434;2022-08-23T11:00:12;116.25;;;33.70;;
37885;SDS011;23726;52.520;13.434;2022-08-23T11:02:43;103.07;;;32.22;;
37885;SDS011;23726;52.520;13.434;2022-08-23T11:05:20;120.22;;;35.28;;
37885;SDS011;23726;52.520;13.434;2022-08-23T11:15:44;97.72;;;33.13;;
37885;SDS011;23726;52.520;13.434;2022-08-23T11:21:02;94.28;;;31.45;;
37885;SDS011;23726;52.520;13.434;2022-08-23T11:26:06;86.75;;;28.52;;
37885;SDS011;23726;52.520;13.434;2022-08-23T11:28:38;92.53;;;29.90;;
37885;SDS011;23726;52.520;13.434;2022-08-23T11:43:48;90.40;;;28.70;;
37885;SDS011;23726;52.520;13.434;2022-08-23T11:54:26;76.45;;;26.25;;
37885;SDS011;23726;52.520;13.434;2022-08-23T11:57:24;76.03;;;26.85;;
37885;SDS011;23726;52.520;13.434;2022-08-23T12:05:28;77.38;;;27.02;;
37885;SDS011;23726;52.520;13.434;2022-08-23T12:34:49;59.33;;;22.50;;
37885;SDS011;23726;52.520;13.434;2022-08-23T12:40:10;55.95;;;20.17;;
37885;SDS011;23726;52.520;13.434;2022-08-23T12:42:45;51.65;;;20.70;;
37885;SDS011;23726;52.520;13.434;2022-08-23T12:45:14;55.67;;;21.10;;
37885;SDS011;23726;52.520;13.434;2022-08-23T12:47:43;49.97;;;19.75;;
37885;SDS011;23726;52.520;13.434;2022-08-23T12:50:26;48.90;;;19.77;;
37885;SDS011;23726;52.520;13.434;2022-08-23T12:52:57;54.67;;;20.45;;
37885;SDS011;23726;52.520;13.434;2022-08-23T12:55:47;51.40;;;18.52;;
37885;SDS011;23726;52.520;13.434;2022-08-23T12:58:16;44.55;;;19.58;;
37885;SDS011;23726;52.520;13.434;2022-08-23T13:00:53;44.58;;;19.15;;
37885;SDS011;23726;52.520;13.434;2022-08-23T13:03:23;44.50;;;18.48;;
37885;SDS011;23726;52.520;13.434;2022-08-23T13:05:58;47.25;;;18.35;;
37885;SDS011;23726;52.520;13.434;2022-08-23T13:08:48;44.87;;;18.07;;
37885;SDS011;23726;52.520;13.434;2022-08-23T13:11:17;44.25;;;18.50;;
37885;SDS011;23726;52.520;13.434;2022-08-23T13:13:45;46.83;;;19.27;;
37885;SDS011;23726;52.520;13.434;2022-08-23T13:16:40;43.20;;;17.30;;
37885;SDS011;23726;52.520;13.434;2022-08-23T13:19:27;45.80;;;18.27;;
37885;SDS011;23726;52.520;13.434;2022-08-23T13:24:42;40.53;;;16.52;;
37885;SDS011;23726;52.520;13.434;2022-08-23T13:27:23;40.13;;;17.70;;
37885;SDS011;23726;52.520;13.434;2022-08-23T13:30:02;39.83;;;16.65;;
37885;SDS011;23726;52.520;13.434;2022-08-23T13:33:30;38.33;;;16.67;;
37885;SDS011;23726;52.520;13.434;2022-08-23T13:35:36;38.53;;;16.58;;
37885;SDS011;23726;52.520;13.434;2022-08-23T13:45:58;41.67;;;17.10;;
37885;SDS011;23726;52.520;13.434;2022-08-23T13:48:33;38.55;;;16.80;;
37885;SDS011;23726;52.520;13.434;2022-08-23T13:54:05;32.40;;;15.85;;
37885;SDS011;23726;52.520;13.434;2022-08-23T13:56:41;34.05;;;14.77;;
37885;SDS011;23726;52.520;13.434;2022-08-23T14:01:44;28.73;;;13.88;;
37885;SDS011;23726;52.520;13.434;2022-08-23T14:04:09;31.60;;;14.32;;
37885;SDS011;23726;52.520;13.434;2022-08-23T14:06:35;28.35;;;14.00;;
37885;SDS011;23726;52.520;13.434;2022-08-23T14:09:00;34.50;;;14.30;;
37885;SDS011;23726;52.520;13.434;2022-08-23T14:11:26;26.17;;;13.48;;
37885;SDS011;23726;52.520;13.434;2022-08-23T14:13:52;29.80;;;14.32;;
37885;SDS011;23726;52.520;13.434;2022-08-23T14:16:27;36.22;;;14.35;;
37885;SDS011;23726;52.520;13.434;2022-08-23T14:18:56;30.10;;;14.05;;
37885;SDS011;23726;52.520;13.434;2022-08-23T14:21:21;30.88;;;14.25;;
37885;SDS011;23726;52.520;13.434;2022-08-23T14:23:48;30.27;;;13.55;;
37885;SDS011;23726;52.520;13.434;2022-08-23T14:26:15;28.33;;;13.13;;
37885;SDS011;23726;52.520;13.434;2022-08-23T14:28:42;25.80;;;13.68;;
37885;SDS011;23726;52.520;13.434;2022-08-23T14:31:08;25.80;;;12.68;;
37885;SDS011;23726;52.520;13.434;2022-08-23T14:33:35;27.27;;;12.60;;
37885;SDS011;23726;52.520;13.434;2022-08-23T14:36:02;25.15;;;13.30;;
37885;SDS011;23726;52.520;13.434;2022-08-23T14:38:28;27.65;;;12.80;;
37885;SDS011;23726;52.520;13.434;2022-08-23T14:40:57;26.02;;;12.77;;
37885;SDS011;23726;52.520;13.434;2022-08-23T14:43:27;26.90;;;12.00;;
37885;SDS011;23726;52.520;13.434;2022-08-23T14:45:55;25.80;;;12.02;;
37885;SDS011;23726;52.520;13.434;2022-08-23T14:48:22;21.63;;;11.88;;
37885;SDS011;23726;52.520;13.434;2022-08-23T14:50:49;23.33;;;11.25;;
37885;SDS011;23726;52.520;13.434;2022-08-23T14:53:17;25.58;;;12.55;;
37885;SDS011;23726;52.520;13.434;2022-08-23T14:55:45;20.55;;;11.63;;
37885;SDS011;23726;52.520;13.434;2022-08-23T14:58:13;21.35;;;11.75;;
37885;SDS011;23726;52.520;13.434;2022-08-23T15:00:40;25.25;;;11.77;;
37885;SDS011;23726;52.520;13.434;2022-08-23T15:03:07;25.00;;;12.38;;
37885;SDS011;23726;52.520;13.434;2022-08-23T15:05:34;23.48;;;12.70;;
37885;SDS011;23726;52.520;13.434;2022-08-23T15:08:00;25.27;;;11.95;;
37885;SDS011;23726;52.520;13.434;2022-08-23T15:10:26;23.67;;;11.40;;
37885;SDS011;23726;52.520;13.434;2022-08-23T15:12:52;22.65;;;11.30;;
37885;SDS011;23726;52.520;13.434;2022-08-23T15:15:18;20.85;;;11.27;;
37885;SDS011;23726;52.520;13.434;2022-08-23T15:17:52;23.17;;;10.93;;
37885;SDS011;23726;52.520;13.434;2022-08-23T15:20:25;19.27;;;10.60;;
37885;SDS011;23726;52.520;13.434;2022-08-23T15:22:55;24.08;;;11.88;;
37885;SDS011;23726;52.520;13.434;2022-08-23T15:25:22;19.95;;;11.10;;
37885;SDS011;23726;52.520;13.434;2022-08-23T15:27:49;22.35;;;11.25;;
37885;SDS011;23726;52.520;13.434;2022-08-23T15:30:15;19.33;;;10.63;;
37885;SDS011;23726;52.520;13.434;2022-08-23T15:32:41;18.92;;;10.70;;
37885;SDS011;23726;52.520;13.434;2022-08-23T15:35:08;19.20;;;10.80;;
37885;SDS011;23726;52.520;13.434;2022-08-23T15:37:34;17.70;;;10.80;;
37885;SDS011;23726;52.520;13.434;2022-08-23T15:40:00;18.92;;;9.98;;
37885;SDS011;23726;52.520;13.434;2022-08-23T15:42:27;20.95;;;10.75;;
37885;SDS011;23726;52.520;13.434;2022-08-23T15:44:52;16.05;;;9.80;;
37885;SDS011;23726;52.520;13.434;2022-08-23T15:47:19;19.30;;;10.45;;
37885;SDS011;23726;52.520;13.434;2022-08-23T15:49:48;17.47;;;9.57;;
37885;SDS011;23726;52.520;13.434;2022-08-23T15:52:14;20.02;;;10.60;;
37885;SDS011;23726;52.520;13.434;2022-08-23T15:54:40;17.90;;;10.02;;
37885;SDS011;23726;52.520;13.434;2022-08-23T15:57:06;17.13;;;9.98;;
37885;SDS011;23726;52.520;13.434;2022-08-23T15:59:34;17.65;;;9.07;;
37885;SDS011;23726;52.520;13.434;2022-08-23T16:02:01;20.88;;;10.27;;
37885;SDS011;23726;52.520;13.434;2022-08-23T16:04:28;18.48;;;9.52;;
37885;SDS011;23726;52.520;13.434;2022-08-23T16:06:53;18.15;;;9.93;;
37885;SDS011;23726;52.520;13.434;2022-08-23T16:09:20;17.10;;;8.90;;
37885;SDS011;23726;52.520;13.434;2022-08-23T16:11:47;16.83;;;9.77;;
37885;SDS011;23726;52.520;13.434;2022-08-23T16:14:13;17.05;;;9.40;;
37885;SDS011;23726;52.520;13.434;2022-08-23T16:16:40;16.33;;;9.60;;
37885;SDS011;23726;52.520;13.434;2022-08-23T16:19:08;17.52;;;9.35;;
37885;SDS011;23726;52.520;13.434;2022-08-23T16:21:34;15.55;;;9.38;;
37885;SDS011;23726;52.520;13.434;2022-08-23T16:23:59;15.23;;;8.93;;
37885;SDS011;23726;52.520;13.434;2022-08-23T16:26:29;14.02;;;9.32;;
37885;SDS011;23726;52.520;13.434;2022-08-23T16:28:57;16.98;;;8.85;;
37885;SDS011;23726;52.520;13.434;2022-08-23T16:31:23;15.48;;;9.40;;
37885;SDS011;23726;52.520;13.434;2022-08-23T16:33:56;16.90;;;9.37;;
37885;SDS011;23726;52.520;13.434;2022-08-23T16:36:23;13.90;;;9.30;;